Portada
METAR-TAF:

METAR-TAF

Aeroports :

Wanaham

Lifou, Nova Caledònia

latitud: 20-46S, longitud: 167-14E, altitud: 28 m

METAR: manca

Hora: 06:27 (19:27 UTC)

Pronòstic

L'informe es va fer fa 2 hores i 27 minuts, a les 17:00 UTC
Pronòstic vàlid del 04 a les 18 UTC al 05 a les 18 UTC
Vent 6 kt del Nord
Visibilitat 10 km o més
Escasses núvols a una alçada de 800 ft
Cel ennuvolat a una alçada de 13000 ft
Probabilitat 30% :
Temporalment
l' 04 a les 18 UTC al 04 a les 20 UTC
Visibilitat: 4000 m
Cel ennuvolat a una alçada de 1200 ft
Escasses núvols a una alçada de 2000 ft, Cumulonimbus.
xàfecs de pluja
Probabilitat 30% :
Temporalment
l' 05 a les 02 UTC al 05 a les 10 UTC
Visibilitat: 2000 m
Cel ennuvolat a una alçada de 1000 ft
Núvols disperses a una alçada de 1600 ft, Cumulonimbus.
xàfecs de pluja

TAF: NWWL 041700Z 0418/0518 36006KT 9999 FEW008 BKN130 PROB30 TEMPO 0418/0420 4000 SHRA BKN012 FEW020CB PROB30 TEMPO 0502/0510 2000 +SHRA BKN010 SCT016CB

Observacions i pronòstics meteorològics de més de 4000 aeroports (METAR i TAF).

Les estacions disponibles són els punts grocs i vermells al mapa.

Posi el ratolí al punt desitjat per veure el nom de l'estació.

Feu clic per veure les observacions i els pronòstics meteorològics.

Per canviar el mapa: feu clic els botons verds amb una creu de color negre per apropar; al botó verd amb un guió per allunyar la imatge; o en les fletxes verdes per a mapes adjacents.


METAR-TAF: